sensor_id;sensor_type;location;lat;lon;timestamp;P1;durP1;ratioP1;P2;durP2;ratioP2
70929;SDS011;58588;48.102;19.682;2023-12-04T00:00:01;16.65;;;6.47;;
70929;SDS011;58588;48.102;19.682;2023-12-04T00:03:04;17.38;;;7.15;;
70929;SDS011;58588;48.102;19.682;2023-12-04T00:09:24;21.40;;;7.80;;
70929;SDS011;58588;48.102;19.682;2023-12-04T00:12:27;18.30;;;6.65;;
70929;SDS011;58588;48.102;19.682;2023-12-04T00:15:31;21.38;;;7.85;;
70929;SDS011;58588;48.102;19.682;2023-12-04T00:18:33;18.83;;;6.73;;
70929;SDS011;58588;48.102;19.682;2023-12-04T00:21:36;18.38;;;6.28;;
70929;SDS011;58588;48.102;19.682;2023-12-04T00:24:38;15.52;;;6.05;;
70929;SDS011;58588;48.102;19.682;2023-12-04T00:27:42;15.97;;;5.80;;
70929;SDS011;58588;48.102;19.682;2023-12-04T00:30:44;18.23;;;5.97;;
70929;SDS011;58588;48.102;19.682;2023-12-04T00:33:46;17.70;;;5.90;;
70929;SDS011;58588;48.102;19.682;2023-12-04T00:36:50;19.40;;;6.72;;
70929;SDS011;58588;48.102;19.682;2023-12-04T00:39:51;16.23;;;7.03;;
70929;SDS011;58588;48.102;19.682;2023-12-04T00:43:05;15.02;;;6.57;;
70929;SDS011;58588;48.102;19.682;2023-12-04T00:46:07;21.40;;;7.15;;
70929;SDS011;58588;48.102;19.682;2023-12-04T00:49:08;15.40;;;6.10;;
70929;SDS011;58588;48.102;19.682;2023-12-04T00:52:12;16.95;;;7.20;;
70929;SDS011;58588;48.102;19.682;2023-12-04T00:55:14;16.35;;;7.18;;
70929;SDS011;58588;48.102;19.682;2023-12-04T00:58:16;18.77;;;6.40;;
70929;SDS011;58588;48.102;19.682;2023-12-04T01:01:17;18.13;;;5.22;;
70929;SDS011;58588;48.102;19.682;2023-12-04T01:04:19;13.05;;;5.47;;
70929;SDS011;58588;48.102;19.682;2023-12-04T01:07:23;15.38;;;5.78;;
70929;SDS011;58588;48.102;19.682;2023-12-04T01:10:24;17.17;;;6.18;;
70929;SDS011;58588;48.102;19.682;2023-12-04T01:13:26;16.23;;;6.28;;
70929;SDS011;58588;48.102;19.682;2023-12-04T01:16:28;17.60;;;6.40;;
70929;SDS011;58588;48.102;19.682;2023-12-04T01:19:31;15.17;;;5.50;;
70929;SDS011;58588;48.102;19.682;2023-12-04T01:22:34;17.00;;;6.10;;
70929;SDS011;58588;48.102;19.682;2023-12-04T01:25:36;18.20;;;5.60;;
70929;SDS011;58588;48.102;19.682;2023-12-04T01:28:37;14.83;;;5.17;;
70929;SDS011;58588;48.102;19.682;2023-12-04T01:31:39;14.63;;;5.00;;
70929;SDS011;58588;48.102;19.682;2023-12-04T01:34:41;12.57;;;4.82;;
70929;SDS011;58588;48.102;19.682;2023-12-04T01:37:45;13.43;;;4.93;;
70929;SDS011;58588;48.102;19.682;2023-12-04T01:40:46;15.48;;;6.82;;
70929;SDS011;58588;48.102;19.682;2023-12-04T01:43:48;19.02;;;7.03;;
70929;SDS011;58588;48.102;19.682;2023-12-04T01:46:50;22.80;;;6.72;;
70929;SDS011;58588;48.102;19.682;2023-12-04T01:49:52;20.87;;;7.70;;
70929;SDS011;58588;48.102;19.682;2023-12-04T01:52:56;17.67;;;6.63;;
70929;SDS011;58588;48.102;19.682;2023-12-04T01:55:58;16.27;;;6.05;;
70929;SDS011;58588;48.102;19.682;2023-12-04T01:59:00;21.27;;;8.03;;
70929;SDS011;58588;48.102;19.682;2023-12-04T02:02:02;15.95;;;6.20;;
70929;SDS011;58588;48.102;19.682;2023-12-04T02:05:06;38.88;;;14.38;;
70929;SDS011;58588;48.102;19.682;2023-12-04T02:08:10;22.55;;;9.35;;
70929;SDS011;58588;48.102;19.682;2023-12-04T02:11:13;14.43;;;5.47;;
70929;SDS011;58588;48.102;19.682;2023-12-04T02:14:15;13.15;;;4.38;;
70929;SDS011;58588;48.102;19.682;2023-12-04T02:17:16;12.40;;;4.22;;
70929;SDS011;58588;48.102;19.682;2023-12-04T02:20:20;12.47;;;4.57;;
70929;SDS011;58588;48.102;19.682;2023-12-04T02:23:23;15.70;;;5.53;;
70929;SDS011;58588;48.102;19.682;2023-12-04T02:26:27;10.95;;;3.25;;
70929;SDS011;58588;48.102;19.682;2023-12-04T02:29:36;9.10;;;2.83;;
70929;SDS011;58588;48.102;19.682;2023-12-04T02:32:42;12.05;;;2.95;;
70929;SDS011;58588;48.102;19.682;2023-12-04T02:35:46;8.45;;;2.80;;
70929;SDS011;58588;48.102;19.682;2023-12-04T02:38:49;9.40;;;2.90;;
70929;SDS011;58588;48.102;19.682;2023-12-04T02:41:53;9.85;;;3.17;;
70929;SDS011;58588;48.102;19.682;2023-12-04T02:44:55;10.63;;;2.40;;
70929;SDS011;58588;48.102;19.682;2023-12-04T02:47:56;14.75;;;3.97;;
70929;SDS011;58588;48.102;19.682;2023-12-04T02:50:58;11.43;;;3.67;;
70929;SDS011;58588;48.102;19.682;2023-12-04T02:54:00;14.50;;;4.63;;
70929;SDS011;58588;48.102;19.682;2023-12-04T02:57:04;14.85;;;3.83;;
70929;SDS011;58588;48.102;19.682;2023-12-04T03:00:08;12.87;;;4.70;;
70929;SDS011;58588;48.102;19.682;2023-12-04T03:03:16;17.60;;;6.35;;
70929;SDS011;58588;48.102;19.682;2023-12-04T03:06:17;15.13;;;4.78;;
70929;SDS011;58588;48.102;19.682;2023-12-04T03:09:19;14.10;;;5.60;;
70929;SDS011;58588;48.102;19.682;2023-12-04T03:12:23;15.63;;;5.40;;
70929;SDS011;58588;48.102;19.682;2023-12-04T03:15:24;16.88;;;5.15;;
70929;SDS011;58588;48.102;19.682;2023-12-04T03:18:28;13.68;;;4.68;;
70929;SDS011;58588;48.102;19.682;2023-12-04T03:21:30;13.57;;;5.63;;
70929;SDS011;58588;48.102;19.682;2023-12-04T03:24:32;14.85;;;5.18;;
70929;SDS011;58588;48.102;19.682;2023-12-04T03:27:35;18.35;;;6.22;;
70929;SDS011;58588;48.102;19.682;2023-12-04T03:30:37;10.83;;;4.63;;
70929;SDS011;58588;48.102;19.682;2023-12-04T03:33:39;13.95;;;5.00;;
70929;SDS011;58588;48.102;19.682;2023-12-04T03:36:41;14.77;;;5.63;;
70929;SDS011;58588;48.102;19.682;2023-12-04T03:39:43;15.48;;;5.43;;
70929;SDS011;58588;48.102;19.682;2023-12-04T03:42:46;14.32;;;4.95;;
70929;SDS011;58588;48.102;19.682;2023-12-04T03:45:48;12.65;;;5.20;;
70929;SDS011;58588;48.102;19.682;2023-12-04T03:48:50;15.63;;;5.60;;
70929;SDS011;58588;48.102;19.682;2023-12-04T03:51:52;17.63;;;7.57;;
70929;SDS011;58588;48.102;19.682;2023-12-04T03:54:54;23.55;;;8.32;;
70929;SDS011;58588;48.102;19.682;2023-12-04T03:58:01;15.05;;;5.90;;
70929;SDS011;58588;48.102;19.682;2023-12-04T04:01:04;11.87;;;4.10;;
70929;SDS011;58588;48.102;19.682;2023-12-04T04:04:06;13.93;;;4.32;;
70929;SDS011;58588;48.102;19.682;2023-12-04T04:07:08;9.32;;;3.10;;
70929;SDS011;58588;48.102;19.682;2023-12-04T04:10:10;12.13;;;3.60;;
70929;SDS011;58588;48.102;19.682;2023-12-04T04:13:13;12.38;;;3.25;;
70929;SDS011;58588;48.102;19.682;2023-12-04T04:16:15;9.93;;;3.28;;
70929;SDS011;58588;48.102;19.682;2023-12-04T04:19:17;12.07;;;4.00;;
70929;SDS011;58588;48.102;19.682;2023-12-04T04:22:19;9.40;;;3.03;;
70929;SDS011;58588;48.102;19.682;2023-12-04T04:25:21;10.00;;;3.72;;
70929;SDS011;58588;48.102;19.682;2023-12-04T04:28:25;14.63;;;4.25;;
70929;SDS011;58588;48.102;19.682;2023-12-04T04:31:29;11.37;;;3.37;;
70929;SDS011;58588;48.102;19.682;2023-12-04T04:34:31;11.35;;;4.35;;
70929;SDS011;58588;48.102;19.682;2023-12-04T04:37:39;14.05;;;5.25;;
70929;SDS011;58588;48.102;19.682;2023-12-04T04:40:41;21.75;;;6.80;;
70929;SDS011;58588;48.102;19.682;2023-12-04T04:43:45;21.88;;;7.65;;
70929;SDS011;58588;48.102;19.682;2023-12-04T04:46:47;20.65;;;6.45;;
70929;SDS011;58588;48.102;19.682;2023-12-04T04:49:50;22.02;;;7.00;;
70929;SDS011;58588;48.102;19.682;2023-12-04T04:52:52;17.93;;;6.03;;
70929;SDS011;58588;48.102;19.682;2023-12-04T04:55:54;27.00;;;8.10;;
70929;SDS011;58588;48.102;19.682;2023-12-04T04:58:57;31.27;;;10.43;;
70929;SDS011;58588;48.102;19.682;2023-12-04T05:01:59;25.17;;;8.73;;
70929;SDS011;58588;48.102;19.682;2023-12-04T05:05:02;18.65;;;6.30;;
70929;SDS011;58588;48.102;19.682;2023-12-04T05:08:04;16.58;;;5.72;;
70929;SDS011;58588;48.102;19.682;2023-12-04T05:11:06;19.85;;;6.82;;
70929;SDS011;58588;48.102;19.682;2023-12-04T05:14:10;22.13;;;7.10;;
70929;SDS011;58588;48.102;19.682;2023-12-04T05:17:11;22.88;;;6.97;;
70929;SDS011;58588;48.102;19.682;2023-12-04T05:20:13;24.42;;;7.15;;
70929;SDS011;58588;48.102;19.682;2023-12-04T05:23:15;22.67;;;6.57;;
70929;SDS011;58588;48.102;19.682;2023-12-04T05:26:17;12.85;;;4.57;;
70929;SDS011;58588;48.102;19.682;2023-12-04T05:29:20;9.60;;;3.60;;
70929;SDS011;58588;48.102;19.682;2023-12-04T05:32:22;12.77;;;3.83;;
70929;SDS011;58588;48.102;19.682;2023-12-04T05:35:24;12.85;;;4.82;;
70929;SDS011;58588;48.102;19.682;2023-12-04T05:38:26;13.18;;;3.72;;
70929;SDS011;58588;48.102;19.682;2023-12-04T05:41:28;15.68;;;4.20;;
70929;SDS011;58588;48.102;19.682;2023-12-04T05:44:31;15.55;;;6.07;;
70929;SDS011;58588;48.102;19.682;2023-12-04T05:47:35;22.02;;;7.15;;
70929;SDS011;58588;48.102;19.682;2023-12-04T05:50:36;15.73;;;6.60;;
70929;SDS011;58588;48.102;19.682;2023-12-04T05:53:38;40.93;;;15.87;;
70929;SDS011;58588;48.102;19.682;2023-12-04T05:56:40;49.42;;;16.25;;
70929;SDS011;58588;48.102;19.682;2023-12-04T05:59:44;32.00;;;12.30;;
70929;SDS011;58588;48.102;19.682;2023-12-04T06:02:46;21.50;;;5.73;;
70929;SDS011;58588;48.102;19.682;2023-12-04T06:05:48;11.93;;;3.45;;
70929;SDS011;58588;48.102;19.682;2023-12-04T06:08:50;12.02;;;3.13;;
70929;SDS011;58588;48.102;19.682;2023-12-04T06:11:51;11.15;;;3.10;;
70929;SDS011;58588;48.102;19.682;2023-12-04T06:14:55;10.48;;;3.60;;
70929;SDS011;58588;48.102;19.682;2023-12-04T06:17:58;15.68;;;4.00;;
70929;SDS011;58588;48.102;19.682;2023-12-04T06:21:00;10.30;;;3.70;;
70929;SDS011;58588;48.102;19.682;2023-12-04T06:24:02;16.30;;;4.83;;
70929;SDS011;58588;48.102;19.682;2023-12-04T06:27:05;17.05;;;6.10;;
70929;SDS011;58588;48.102;19.682;2023-12-04T06:30:11;23.30;;;8.02;;
70929;SDS011;58588;48.102;19.682;2023-12-04T06:33:14;15.30;;;5.57;;
70929;SDS011;58588;48.102;19.682;2023-12-04T06:36:18;17.10;;;6.43;;
70929;SDS011;58588;48.102;19.682;2023-12-04T06:39:21;18.63;;;5.50;;
70929;SDS011;58588;48.102;19.682;2023-12-04T06:42:24;19.30;;;7.47;;
70929;SDS011;58588;48.102;19.682;2023-12-04T06:45:28;17.23;;;6.80;;
70929;SDS011;58588;48.102;19.682;2023-12-04T06:48:32;24.60;;;8.07;;
70929;SDS011;58588;48.102;19.682;2023-12-04T06:51:34;23.73;;;9.07;;
70929;SDS011;58588;48.102;19.682;2023-12-04T06:54:36;21.97;;;9.03;;
70929;SDS011;58588;48.102;19.682;2023-12-04T06:57:38;28.95;;;10.30;;
70929;SDS011;58588;48.102;19.682;2023-12-04T07:00:41;28.50;;;9.90;;
70929;SDS011;58588;48.102;19.682;2023-12-04T07:03:43;24.27;;;9.80;;
70929;SDS011;58588;48.102;19.682;2023-12-04T07:06:45;25.15;;;10.18;;
70929;SDS011;58588;48.102;19.682;2023-12-04T07:09:47;25.17;;;8.90;;
70929;SDS011;58588;48.102;19.682;2023-12-04T07:12:49;33.10;;;12.05;;
70929;SDS011;58588;48.102;19.682;2023-12-04T07:15:52;36.28;;;12.35;;
70929;SDS011;58588;48.102;19.682;2023-12-04T07:18:54;28.35;;;11.20;;
70929;SDS011;58588;48.102;19.682;2023-12-04T07:21:56;26.42;;;10.73;;
70929;SDS011;58588;48.102;19.682;2023-12-04T07:24:58;30.37;;;10.43;;
70929;SDS011;58588;48.102;19.682;2023-12-04T07:28:00;28.58;;;10.32;;
70929;SDS011;58588;48.102;19.682;2023-12-04T07:31:04;30.83;;;11.10;;
70929;SDS011;58588;48.102;19.682;2023-12-04T07:34:06;37.07;;;12.27;;
70929;SDS011;58588;48.102;19.682;2023-12-04T07:37:08;28.60;;;11.65;;
70929;SDS011;58588;48.102;19.682;2023-12-04T07:40:10;35.83;;;13.45;;
70929;SDS011;58588;48.102;19.682;2023-12-04T07:43:12;33.28;;;13.60;;
70929;SDS011;58588;48.102;19.682;2023-12-04T07:46:16;19.45;;;8.30;;
70929;SDS011;58588;48.102;19.682;2023-12-04T07:49:18;24.90;;;8.57;;
70929;SDS011;58588;48.102;19.682;2023-12-04T07:52:20;20.98;;;8.48;;
70929;SDS011;58588;48.102;19.682;2023-12-04T07:55:22;23.77;;;8.53;;
70929;SDS011;58588;48.102;19.682;2023-12-04T07:58:24;25.10;;;8.85;;
70929;SDS011;58588;48.102;19.682;2023-12-04T08:01:27;20.02;;;7.22;;
70929;SDS011;58588;48.102;19.682;2023-12-04T08:04:29;22.47;;;8.33;;
70929;SDS011;58588;48.102;19.682;2023-12-04T08:07:31;27.88;;;10.88;;
70929;SDS011;58588;48.102;19.682;2023-12-04T08:10:33;26.15;;;10.25;;
70929;SDS011;58588;48.102;19.682;2023-12-04T08:13:34;21.80;;;9.80;;
70929;SDS011;58588;48.102;19.682;2023-12-04T08:16:38;30.73;;;12.25;;
70929;SDS011;58588;48.102;19.682;2023-12-04T08:19:40;23.73;;;10.35;;
70929;SDS011;58588;48.102;19.682;2023-12-04T08:22:42;24.13;;;9.20;;
70929;SDS011;58588;48.102;19.682;2023-12-04T08:25:45;22.67;;;9.53;;
70929;SDS011;58588;48.102;19.682;2023-12-04T08:28:46;22.13;;;8.13;;
70929;SDS011;58588;48.102;19.682;2023-12-04T08:31:51;20.20;;;8.05;;
70929;SDS011;58588;48.102;19.682;2023-12-04T08:34:52;31.13;;;11.97;;
70929;SDS011;58588;48.102;19.682;2023-12-04T08:37:54;30.23;;;12.55;;
70929;SDS011;58588;48.102;19.682;2023-12-04T08:40:56;37.38;;;15.60;;
70929;SDS011;58588;48.102;19.682;2023-12-04T08:43:58;29.13;;;13.75;;
70929;SDS011;58588;48.102;19.682;2023-12-04T08:47:02;33.40;;;14.60;;
70929;SDS011;58588;48.102;19.682;2023-12-04T08:50:05;31.52;;;14.10;;
70929;SDS011;58588;48.102;19.682;2023-12-04T08:53:07;34.45;;;12.93;;
70929;SDS011;58588;48.102;19.682;2023-12-04T08:56:15;33.17;;;14.40;;
70929;SDS011;58588;48.102;19.682;2023-12-04T08:59:18;31.30;;;14.05;;
70929;SDS011;58588;48.102;19.682;2023-12-04T09:02:22;39.03;;;18.95;;
70929;SDS011;58588;48.102;19.682;2023-12-04T09:05:24;34.30;;;14.30;;
70929;SDS011;58588;48.102;19.682;2023-12-04T09:08:26;40.15;;;17.52;;
70929;SDS011;58588;48.102;19.682;2023-12-04T09:11:28;49.90;;;22.33;;
70929;SDS011;58588;48.102;19.682;2023-12-04T09:14:30;46.65;;;21.67;;
70929;SDS011;58588;48.102;19.682;2023-12-04T09:17:33;46.58;;;20.30;;
70929;SDS011;58588;48.102;19.682;2023-12-04T09:20:35;47.42;;;20.48;;
70929;SDS011;58588;48.102;19.682;2023-12-04T09:23:37;41.60;;;17.35;;
70929;SDS011;58588;48.102;19.682;2023-12-04T09:26:39;28.20;;;13.00;;
70929;SDS011;58588;48.102;19.682;2023-12-04T09:29:41;32.88;;;14.75;;
70929;SDS011;58588;48.102;19.682;2023-12-04T09:32:44;34.13;;;15.13;;
70929;SDS011;58588;48.102;19.682;2023-12-04T09:35:46;41.57;;;18.27;;
70929;SDS011;58588;48.102;19.682;2023-12-04T09:38:48;33.03;;;14.35;;
70929;SDS011;58588;48.102;19.682;2023-12-04T09:41:50;37.50;;;16.25;;
70929;SDS011;58588;48.102;19.682;2023-12-04T09:44:52;27.73;;;11.73;;
70929;SDS011;58588;48.102;19.682;2023-12-04T09:47:55;19.70;;;8.20;;
70929;SDS011;58588;48.102;19.682;2023-12-04T09:50:58;23.00;;;9.45;;
70929;SDS011;58588;48.102;19.682;2023-12-04T09:54:02;20.48;;;8.55;;
70929;SDS011;58588;48.102;19.682;2023-12-04T09:57:05;22.50;;;10.68;;
70929;SDS011;58588;48.102;19.682;2023-12-04T10:00:08;17.37;;;8.63;;
70929;SDS011;58588;48.102;19.682;2023-12-04T10:03:14;19.65;;;8.15;;
70929;SDS011;58588;48.102;19.682;2023-12-04T10:06:16;18.17;;;7.72;;
70929;SDS011;58588;48.102;19.682;2023-12-04T10:09:18;16.75;;;6.75;;
70929;SDS011;58588;48.102;19.682;2023-12-04T10:12:22;15.00;;;5.40;;
70929;SDS011;58588;48.102;19.682;2023-12-04T10:15:24;17.03;;;7.40;;
70929;SDS011;58588;48.102;19.682;2023-12-04T10:18:29;18.55;;;7.88;;
70929;SDS011;58588;48.102;19.682;2023-12-04T10:21:32;16.55;;;7.18;;
70929;SDS011;58588;48.102;19.682;2023-12-04T10:24:36;15.07;;;6.35;;
70929;SDS011;58588;48.102;19.682;2023-12-04T10:27:39;18.00;;;6.77;;
70929;SDS011;58588;48.102;19.682;2023-12-04T10:30:41;13.20;;;5.90;;
70929;SDS011;58588;48.102;19.682;2023-12-04T10:33:45;14.63;;;6.47;;
70929;SDS011;58588;48.102;19.682;2023-12-04T10:36:49;15.25;;;6.70;;
70929;SDS011;58588;48.102;19.682;2023-12-04T10:39:51;13.82;;;5.78;;
70929;SDS011;58588;48.102;19.682;2023-12-04T10:43:10;19.43;;;8.17;;
70929;SDS011;58588;48.102;19.682;2023-12-04T10:46:13;16.88;;;7.30;;
70929;SDS011;58588;48.102;19.682;2023-12-04T10:49:18;20.10;;;8.25;;
70929;SDS011;58588;48.102;19.682;2023-12-04T10:52:20;18.23;;;7.68;;
70929;SDS011;58588;48.102;19.682;2023-12-04T10:55:22;16.80;;;7.35;;
70929;SDS011;58588;48.102;19.682;2023-12-04T10:58:25;15.23;;;6.80;;
70929;SDS011;58588;48.102;19.682;2023-12-04T11:01:27;16.17;;;7.03;;
70929;SDS011;58588;48.102;19.682;2023-12-04T11:04:34;20.52;;;7.85;;
70929;SDS011;58588;48.102;19.682;2023-12-04T11:07:39;19.20;;;8.27;;
70929;SDS011;58588;48.102;19.682;2023-12-04T11:10:45;16.42;;;7.32;;
70929;SDS011;58588;48.102;19.682;2023-12-04T11:13:50;16.80;;;6.60;;
70929;SDS011;58588;48.102;19.682;2023-12-04T11:16:57;21.23;;;8.27;;
70929;SDS011;58588;48.102;19.682;2023-12-04T11:20:11;22.63;;;10.18;;
70929;SDS011;58588;48.102;19.682;2023-12-04T11:23:18;25.77;;;10.43;;
70929;SDS011;58588;48.102;19.682;2023-12-04T11:26:20;30.00;;;12.57;;
70929;SDS011;58588;48.102;19.682;2023-12-04T11:29:23;27.00;;;10.93;;
70929;SDS011;58588;48.102;19.682;2023-12-04T11:32:27;31.77;;;13.15;;
70929;SDS011;58588;48.102;19.682;2023-12-04T11:39:12;21.58;;;9.98;;
70929;SDS011;58588;48.102;19.682;2023-12-04T11:42:15;22.25;;;10.27;;
70929;SDS011;58588;48.102;19.682;2023-12-04T11:45:20;25.47;;;10.77;;
70929;SDS011;58588;48.102;19.682;2023-12-04T11:48:22;18.10;;;7.85;;
70929;SDS011;58588;48.102;19.682;2023-12-04T11:55:00;54.28;;;21.30;;
70929;SDS011;58588;48.102;19.682;2023-12-04T11:58:08;20.58;;;9.45;;
70929;SDS011;58588;48.102;19.682;2023-12-04T12:01:10;24.80;;;11.67;;
70929;SDS011;58588;48.102;19.682;2023-12-04T12:04:14;20.95;;;7.50;;
70929;SDS011;58588;48.102;19.682;2023-12-04T12:07:18;15.05;;;6.45;;
70929;SDS011;58588;48.102;19.682;2023-12-04T12:10:22;18.23;;;7.10;;
70929;SDS011;58588;48.102;19.682;2023-12-04T12:13:24;15.82;;;7.22;;
70929;SDS011;58588;48.102;19.682;2023-12-04T12:16:27;19.73;;;8.60;;
70929;SDS011;58588;48.102;19.682;2023-12-04T12:19:29;20.98;;;8.48;;
70929;SDS011;58588;48.102;19.682;2023-12-04T12:22:34;19.90;;;7.47;;
70929;SDS011;58588;48.102;19.682;2023-12-04T12:25:37;19.02;;;7.22;;
70929;SDS011;58588;48.102;19.682;2023-12-04T12:28:39;16.20;;;7.40;;
70929;SDS011;58588;48.102;19.682;2023-12-04T12:31:41;14.93;;;6.67;;
70929;SDS011;58588;48.102;19.682;2023-12-04T12:34:43;16.42;;;6.53;;
70929;SDS011;58588;48.102;19.682;2023-12-04T12:37:47;15.60;;;6.95;;
70929;SDS011;58588;48.102;19.682;2023-12-04T12:40:49;17.88;;;7.50;;
70929;SDS011;58588;48.102;19.682;2023-12-04T12:44:17;17.25;;;7.65;;
70929;SDS011;58588;48.102;19.682;2023-12-04T12:47:19;18.10;;;6.97;;
70929;SDS011;58588;48.102;19.682;2023-12-04T12:50:21;15.73;;;7.25;;
70929;SDS011;58588;48.102;19.682;2023-12-04T12:53:24;16.67;;;7.53;;
70929;SDS011;58588;48.102;19.682;2023-12-04T12:56:26;17.65;;;8.23;;
70929;SDS011;58588;48.102;19.682;2023-12-04T12:59:28;16.13;;;7.95;;
70929;SDS011;58588;48.102;19.682;2023-12-04T13:02:33;17.03;;;7.33;;
70929;SDS011;58588;48.102;19.682;2023-12-04T13:05:36;17.33;;;6.85;;
70929;SDS011;58588;48.102;19.682;2023-12-04T13:08:39;18.50;;;7.97;;
70929;SDS011;58588;48.102;19.682;2023-12-04T13:11:41;17.50;;;7.32;;
70929;SDS011;58588;48.102;19.682;2023-12-04T13:14:43;18.65;;;8.20;;
70929;SDS011;58588;48.102;19.682;2023-12-04T13:17:45;16.53;;;7.33;;
70929;SDS011;58588;48.102;19.682;2023-12-04T13:20:47;15.52;;;6.38;;
70929;SDS011;58588;48.102;19.682;2023-12-04T13:23:50;19.38;;;7.55;;
70929;SDS011;58588;48.102;19.682;2023-12-04T13:26:52;19.65;;;7.50;;
70929;SDS011;58588;48.102;19.682;2023-12-04T13:29:54;18.42;;;7.00;;
70929;SDS011;58588;48.102;19.682;2023-12-04T13:32:56;17.07;;;7.13;;
70929;SDS011;58588;48.102;19.682;2023-12-04T13:35:58;15.60;;;6.55;;
70929;SDS011;58588;48.102;19.682;2023-12-04T13:39:01;15.93;;;6.88;;
70929;SDS011;58588;48.102;19.682;2023-12-04T13:42:04;15.27;;;6.70;;
70929;SDS011;58588;48.102;19.682;2023-12-04T13:45:26;15.98;;;6.57;;
70929;SDS011;58588;48.102;19.682;2023-12-04T13:48:28;17.03;;;6.63;;
70929;SDS011;58588;48.102;19.682;2023-12-04T13:51:30;20.70;;;8.63;;
70929;SDS011;58588;48.102;19.682;2023-12-04T13:54:33;23.95;;;10.70;;
70929;SDS011;58588;48.102;19.682;2023-12-04T13:57:44;24.98;;;10.63;;
70929;SDS011;58588;48.102;19.682;2023-12-04T14:01:00;19.98;;;8.68;;
70929;SDS011;58588;48.102;19.682;2023-12-04T14:04:13;28.87;;;13.87;;
70929;SDS011;58588;48.102;19.682;2023-12-04T14:07:14;34.80;;;15.27;;
70929;SDS011;58588;48.102;19.682;2023-12-04T14:10:19;33.10;;;14.70;;
70929;SDS011;58588;48.102;19.682;2023-12-04T14:13:21;34.55;;;14.65;;
70929;SDS011;58588;48.102;19.682;2023-12-04T14:16:23;25.73;;;11.60;;
70929;SDS011;58588;48.102;19.682;2023-12-04T14:19:24;33.70;;;13.97;;
70929;SDS011;58588;48.102;19.682;2023-12-04T14:22:26;36.22;;;17.55;;
70929;SDS011;58588;48.102;19.682;2023-12-04T14:25:30;31.08;;;13.93;;
70929;SDS011;58588;48.102;19.682;2023-12-04T14:28:32;26.27;;;11.65;;
70929;SDS011;58588;48.102;19.682;2023-12-04T14:31:34;23.15;;;10.57;;
70929;SDS011;58588;48.102;19.682;2023-12-04T14:34:36;26.53;;;10.53;;
70929;SDS011;58588;48.102;19.682;2023-12-04T14:37:38;17.73;;;7.63;;
70929;SDS011;58588;48.102;19.682;2023-12-04T14:40:42;13.75;;;5.97;;
70929;SDS011;58588;48.102;19.682;2023-12-04T14:43:46;17.80;;;7.43;;
70929;SDS011;58588;48.102;19.682;2023-12-04T14:46:48;23.73;;;10.10;;
70929;SDS011;58588;48.102;19.682;2023-12-04T14:49:50;20.10;;;9.20;;
70929;SDS011;58588;48.102;19.682;2023-12-04T14:52:59;28.55;;;10.73;;
70929;SDS011;58588;48.102;19.682;2023-12-04T14:56:16;25.17;;;11.32;;
70929;SDS011;58588;48.102;19.682;2023-12-04T14:59:29;34.00;;;13.05;;
70929;SDS011;58588;48.102;19.682;2023-12-04T15:02:57;31.02;;;12.27;;
70929;SDS011;58588;48.102;19.682;2023-12-04T15:06:36;67.33;;;26.23;;
70929;SDS011;58588;48.102;19.682;2023-12-04T15:09:57;80.20;;;32.03;;
70929;SDS011;58588;48.102;19.682;2023-12-04T15:13:42;54.42;;;22.48;;
70929;SDS011;58588;48.102;19.682;2023-12-04T15:16:54;34.00;;;15.02;;
70929;SDS011;58588;48.102;19.682;2023-12-04T15:20:04;71.60;;;27.23;;
70929;SDS011;58588;48.102;19.682;2023-12-04T15:23:33;52.20;;;21.80;;
70929;SDS011;58588;48.102;19.682;2023-12-04T15:26:35;34.45;;;15.20;;
70929;SDS011;58588;48.102;19.682;2023-12-04T15:29:37;47.50;;;19.73;;
70929;SDS011;58588;48.102;19.682;2023-12-04T15:32:40;84.40;;;31.55;;
70929;SDS011;58588;48.102;19.682;2023-12-04T15:35:41;35.70;;;15.93;;
70929;SDS011;58588;48.102;19.682;2023-12-04T15:38:43;58.45;;;23.13;;
70929;SDS011;58588;48.102;19.682;2023-12-04T15:41:45;32.38;;;13.55;;
70929;SDS011;58588;48.102;19.682;2023-12-04T15:44:48;23.07;;;9.93;;
70929;SDS011;58588;48.102;19.682;2023-12-04T15:47:49;21.77;;;9.00;;
70929;SDS011;58588;48.102;19.682;2023-12-04T15:50:51;25.02;;;9.65;;
70929;SDS011;58588;48.102;19.682;2023-12-04T15:53:53;20.35;;;8.60;;
70929;SDS011;58588;48.102;19.682;2023-12-04T15:56:55;21.50;;;8.80;;
70929;SDS011;58588;48.102;19.682;2023-12-04T15:59:57;24.70;;;9.63;;
70929;SDS011;58588;48.102;19.682;2023-12-04T16:02:59;31.38;;;11.93;;
70929;SDS011;58588;48.102;19.682;2023-12-04T16:06:01;19.67;;;8.38;;
70929;SDS011;58588;48.102;19.682;2023-12-04T16:09:03;20.97;;;8.23;;
70929;SDS011;58588;48.102;19.682;2023-12-04T16:12:05;37.78;;;13.68;;
70929;SDS011;58588;48.102;19.682;2023-12-04T16:15:10;23.85;;;10.07;;
70929;SDS011;58588;48.102;19.682;2023-12-04T16:18:12;27.27;;;12.18;;
70929;SDS011;58588;48.102;19.682;2023-12-04T16:21:14;28.87;;;15.73;;
70929;SDS011;58588;48.102;19.682;2023-12-04T16:24:16;25.90;;;13.10;;
70929;SDS011;58588;48.102;19.682;2023-12-04T16:27:20;72.85;;;25.00;;
70929;SDS011;58588;48.102;19.682;2023-12-04T16:30:24;39.47;;;17.90;;
70929;SDS011;58588;48.102;19.682;2023-12-04T16:33:26;31.23;;;13.83;;
70929;SDS011;58588;48.102;19.682;2023-12-04T16:36:28;18.40;;;7.80;;
70929;SDS011;58588;48.102;19.682;2023-12-04T16:39:30;24.60;;;10.27;;
70929;SDS011;58588;48.102;19.682;2023-12-04T16:42:31;24.63;;;10.65;;
70929;SDS011;58588;48.102;19.682;2023-12-04T16:45:35;19.80;;;9.10;;
70929;SDS011;58588;48.102;19.682;2023-12-04T16:48:37;21.30;;;8.45;;
70929;SDS011;58588;48.102;19.682;2023-12-04T16:51:39;19.95;;;8.18;;
70929;SDS011;58588;48.102;19.682;2023-12-04T16:54:41;27.92;;;11.50;;
70929;SDS011;58588;48.102;19.682;2023-12-04T16:57:43;21.43;;;8.67;;
70929;SDS011;58588;48.102;19.682;2023-12-04T17:00:47;21.67;;;9.38;;
70929;SDS011;58588;48.102;19.682;2023-12-04T17:03:49;23.52;;;10.55;;
70929;SDS011;58588;48.102;19.682;2023-12-04T17:06:52;36.88;;;15.68;;
70929;SDS011;58588;48.102;19.682;2023-12-04T17:09:55;33.03;;;15.13;;
70929;SDS011;58588;48.102;19.682;2023-12-04T17:12:56;37.80;;;17.40;;
70929;SDS011;58588;48.102;19.682;2023-12-04T17:16:00;35.97;;;17.20;;
70929;SDS011;58588;48.102;19.682;2023-12-04T17:19:14;41.97;;;16.83;;
70929;SDS011;58588;48.102;19.682;2023-12-04T17:22:16;42.77;;;18.57;;
70929;SDS011;58588;48.102;19.682;2023-12-04T17:25:18;40.65;;;18.42;;
70929;SDS011;58588;48.102;19.682;2023-12-04T17:28:20;46.65;;;22.52;;
70929;SDS011;58588;48.102;19.682;2023-12-04T17:31:23;52.72;;;22.88;;
70929;SDS011;58588;48.102;19.682;2023-12-04T17:34:25;59.77;;;26.90;;
70929;SDS011;58588;48.102;19.682;2023-12-04T17:37:27;62.85;;;27.05;;
70929;SDS011;58588;48.102;19.682;2023-12-04T17:40:35;58.85;;;26.15;;
70929;SDS011;58588;48.102;19.682;2023-12-04T17:43:37;55.10;;;23.40;;
70929;SDS011;58588;48.102;19.682;2023-12-04T17:46:40;49.03;;;22.27;;
70929;SDS011;58588;48.102;19.682;2023-12-04T17:49:42;40.88;;;19.42;;
70929;SDS011;58588;48.102;19.682;2023-12-04T17:52:45;38.10;;;16.77;;
70929;SDS011;58588;48.102;19.682;2023-12-04T17:55:47;32.03;;;14.10;;
70929;SDS011;58588;48.102;19.682;2023-12-04T17:58:49;32.17;;;14.23;;